createdAt,value
2023-05-22T00:01:57.352Z,189.60
2023-05-22T00:04:31.028Z,197.70
2023-05-22T00:07:04.885Z,200.96
2023-05-22T00:09:39.447Z,206.49
2023-05-22T00:12:12.747Z,204.73
2023-05-22T00:14:46.002Z,199.34
2023-05-22T00:17:19.300Z,199.25
2023-05-22T00:19:54.000Z,198.12
2023-05-22T00:22:28.401Z,197.44
2023-05-22T00:25:03.300Z,191.54
2023-05-22T00:27:36.559Z,190.48
2023-05-22T00:30:11.244Z,189.12
2023-05-22T00:32:44.529Z,189.86
2023-05-22T00:35:17.803Z,189.78
2023-05-22T00:37:51.051Z,188.40
2023-05-22T00:40:26.208Z,189.96
2023-05-22T00:42:59.440Z,188.39
2023-05-22T00:45:33.625Z,187.50
2023-05-22T00:48:09.687Z,184.58
2023-05-22T00:50:43.133Z,184.11
2023-05-22T00:53:16.904Z,179.79
2023-05-22T00:55:52.714Z,181.10
2023-05-22T00:58:28.065Z,184.65
2023-05-22T01:01:01.924Z,180.40
2023-05-22T01:03:35.311Z,181.38
2023-05-22T01:06:08.776Z,185.04
2023-05-22T01:08:42.459Z,182.08
2023-05-22T01:11:24.410Z,173.56
2023-05-22T01:14:08.460Z,174.91
2023-05-22T01:16:52.902Z,179.47
2023-05-22T01:20:01.443Z,176.24
2023-05-22T01:22:58.632Z,169.85
2023-05-22T01:26:03.895Z,167.54
2023-05-22T01:29:04.310Z,178.30
2023-05-22T01:31:42.616Z,177.44
2023-05-22T01:34:20.037Z,177.50
2023-05-22T01:36:55.875Z,172.10
2023-05-22T01:39:30.210Z,172.70
2023-05-22T01:42:03.578Z,167.95
2023-05-22T01:44:36.745Z,163.65
2023-05-22T01:47:11.326Z,168.17
2023-05-22T01:49:45.002Z,169.93
2023-05-22T01:52:30.016Z,168.33
2023-05-22T01:55:13.552Z,168.59
2023-05-22T01:57:55.062Z,162.69
2023-05-22T02:00:30.288Z,164.08
2023-05-22T02:03:09.893Z,156.32
2023-05-22T02:05:46.738Z,160.21
2023-05-22T02:08:22.184Z,160.65
2023-05-22T02:10:57.843Z,159.21
2023-05-22T02:13:31.678Z,161.12
2023-05-22T02:16:06.326Z,159.33
2023-05-22T02:18:41.968Z,163.84
2023-05-22T02:21:15.514Z,161.23
2023-05-22T02:23:48.764Z,158.39
2023-05-22T02:26:21.952Z,160.71
2023-05-22T02:28:56.167Z,154.79
2023-05-22T02:31:29.480Z,158.75
2023-05-22T02:34:05.511Z,158.37
2023-05-22T02:36:39.820Z,160.26
2023-05-22T02:39:13.109Z,156.74
2023-05-22T02:41:48.831Z,156.71
2023-05-22T02:44:22.092Z,158.49
2023-05-22T02:46:55.383Z,158.22
2023-05-22T02:49:30.057Z,157.73
2023-05-22T02:52:06.001Z,156.23
2023-05-22T02:54:39.192Z,153.90
2023-05-22T02:57:12.396Z,152.50
2023-05-22T02:59:45.727Z,154.38
2023-05-22T03:02:20.036Z,153.71
2023-05-22T03:04:59.158Z,151.22
2023-05-22T03:07:32.509Z,156.04
2023-05-22T03:10:06.976Z,159.71
2023-05-22T03:12:42.401Z,160.11
2023-05-22T03:15:18.369Z,163.47
2023-05-22T03:17:51.658Z,160.04
2023-05-22T03:20:26.503Z,162.18
2023-05-22T03:22:59.679Z,158.50
2023-05-22T03:25:32.876Z,161.78
2023-05-22T03:28:06.358Z,156.73
2023-05-22T03:30:43.628Z,162.04
2023-05-22T03:33:27.692Z,163.53
2023-05-22T03:36:03.628Z,163.11
2023-05-22T03:38:36.815Z,164.01
2023-05-22T03:41:10.024Z,174.83
2023-05-22T03:43:44.997Z,173.89
2023-05-22T03:46:18.997Z,176.05
2023-05-22T03:48:52.445Z,179.40
2023-05-22T03:51:27.018Z,173.93
2023-05-22T03:54:00.280Z,177.53
2023-05-22T03:56:33.432Z,181.35
2023-05-22T03:59:06.562Z,181.90
2023-05-22T04:01:40.103Z,185.91
2023-05-22T04:04:13.588Z,185.41
2023-05-22T04:06:48.287Z,185.82
2023-05-22T04:09:21.530Z,190.75
2023-05-22T04:11:56.153Z,190.48
2023-05-22T04:14:29.544Z,195.47
2023-05-22T04:17:02.768Z,195.28
2023-05-22T04:19:36.365Z,201.46
2023-05-22T04:22:10.913Z,210.04
2023-05-22T04:24:44.121Z,214.09
2023-05-22T04:27:17.501Z,213.46
2023-05-22T04:29:51.443Z,215.22
2023-05-22T04:32:24.636Z,217.29
2023-05-22T04:35:00.569Z,210.38
2023-05-22T04:37:35.837Z,213.64
2023-05-22T04:40:10.181Z,227.58
2023-05-22T04:42:44.686Z,240.38
2023-05-22T04:45:19.425Z,251.39
2023-05-22T04:47:53.608Z,263.40
2023-05-22T04:50:27.203Z,276.14
2023-05-22T04:53:04.294Z,280.86
2023-05-22T04:55:37.628Z,272.49
2023-05-22T04:58:10.820Z,271.69
2023-05-22T05:00:44.557Z,271.68
2023-05-22T05:03:18.285Z,280.52
2023-05-22T05:05:51.556Z,280.08
2023-05-22T05:08:26.219Z,271.64
2023-05-22T05:10:59.883Z,274.91
2023-05-22T05:13:33.100Z,288.99
2023-05-22T05:16:06.849Z,285.10
2023-05-22T05:18:40.068Z,290.13
2023-05-22T05:21:13.187Z,287.53
2023-05-22T05:23:47.805Z,284.12
2023-05-22T05:26:21.750Z,276.16
2023-05-22T05:28:56.724Z,273.14
2023-05-22T05:31:34.149Z,287.84
2023-05-22T05:34:27.668Z,296.22
2023-05-22T05:37:24.595Z,293.73
2023-05-22T05:40:00.308Z,293.26
2023-05-22T05:42:33.593Z,297.93
2023-05-22T05:45:09.859Z,297.65
2023-05-22T05:47:43.508Z,300.67
2023-05-22T05:50:17.274Z,310.29
2023-05-22T05:52:50.565Z,309.20
2023-05-22T05:55:26.938Z,318.76
2023-05-22T05:58:01.181Z,309.85
2023-05-22T06:00:45.451Z,303.58
2023-05-22T06:03:18.983Z,306.10
2023-05-22T06:06:07.387Z,304.33
2023-05-22T06:09:16.406Z,301.06
2023-05-22T06:12:12.801Z,313.20
2023-05-22T06:14:49.384Z,299.83
2023-05-22T06:17:22.855Z,303.82
2023-05-22T06:19:56.564Z,307.35
2023-05-22T06:22:30.547Z,305.13
2023-05-22T06:25:05.403Z,310.84
2023-05-22T06:27:41.642Z,295.88
2023-05-22T06:30:18.451Z,283.82
2023-05-22T06:32:58.961Z,292.77
2023-05-22T06:35:32.837Z,287.29
2023-05-22T06:38:06.027Z,288.61
2023-05-22T06:40:40.960Z,295.19
2023-05-22T06:43:21.497Z,296.35
2023-05-22T06:46:05.603Z,292.92
2023-05-22T06:48:54.360Z,285.76
2023-05-22T06:51:32.720Z,275.48
2023-05-22T06:54:14.100Z,279.26
2023-05-22T06:56:50.850Z,276.40
2023-05-22T06:59:26.071Z,280.33
2023-05-22T07:02:11.328Z,283.87
2023-05-22T07:05:02.968Z,283.21
2023-05-22T07:07:49.582Z,273.55
2023-05-22T07:10:25.091Z,277.12
2023-05-22T07:12:58.870Z,275.58
2023-05-22T07:15:33.480Z,282.98
2023-05-22T07:18:09.752Z,279.04
2023-05-22T07:20:46.624Z,284.69
2023-05-22T07:23:26.196Z,285.84
2023-05-22T07:25:59.724Z,289.46
2023-05-22T07:28:38.910Z,295.36
2023-05-22T07:31:20.176Z,299.48
2023-05-22T07:33:54.756Z,299.66
2023-05-22T07:36:27.967Z,315.71
2023-05-22T07:39:01.298Z,333.17
2023-05-22T07:41:34.632Z,348.90
2023-05-22T07:44:08.294Z,346.92
2023-05-22T07:46:45.615Z,358.68
2023-05-22T07:49:24.325Z,364.49
2023-05-22T07:51:57.780Z,360.82
2023-05-22T07:54:32.257Z,364.76
2023-05-22T07:57:05.647Z,375.24
2023-05-22T07:59:44.086Z,379.58
2023-05-22T08:02:18.797Z,379.46
2023-05-22T08:04:52.015Z,389.22
2023-05-22T08:07:25.267Z,383.59
2023-05-22T08:09:58.455Z,388.44
2023-05-22T08:12:31.630Z,396.23
2023-05-22T08:15:05.461Z,394.61
2023-05-22T08:17:40.326Z,395.34
2023-05-22T08:20:14.122Z,387.85
2023-05-22T08:22:47.388Z,380.99
2023-05-22T08:25:20.646Z,380.70
2023-05-22T08:27:53.854Z,396.24
2023-05-22T08:30:27.075Z,407.18
2023-05-22T08:33:01.707Z,415.07
2023-05-22T08:35:35.029Z,413.42
2023-05-22T08:38:08.216Z,407.36
2023-05-22T08:40:49.575Z,390.14
2023-05-22T08:43:22.945Z,384.58
2023-05-22T08:46:02.241Z,392.36
2023-05-22T08:48:37.328Z,398.00
2023-05-22T08:51:16.293Z,401.63
2023-05-22T08:53:54.849Z,409.58
2023-05-22T08:56:29.718Z,411.85
2023-05-22T08:59:04.800Z,421.84
2023-05-22T09:01:38.725Z,412.86
2023-05-22T09:04:14.507Z,411.93
2023-05-22T09:06:48.761Z,422.01
2023-05-22T09:09:22.028Z,425.23
2023-05-22T09:11:56.361Z,417.81
2023-05-22T09:14:31.288Z,417.81
2023-05-22T09:17:04.507Z,426.58
2023-05-22T09:19:40.290Z,415.58
2023-05-22T09:22:14.486Z,407.83
2023-05-22T09:24:47.998Z,404.34
2023-05-22T09:27:25.108Z,410.07
2023-05-22T09:29:58.916Z,418.60
2023-05-22T09:32:32.631Z,430.72
2023-05-22T09:35:08.162Z,423.61
2023-05-22T09:37:42.468Z,426.83
2023-05-22T09:40:15.659Z,410.40
2023-05-22T09:42:48.884Z,415.63
2023-05-22T09:45:24.163Z,414.72
2023-05-22T09:47:57.960Z,407.65
2023-05-22T09:50:32.852Z,412.03
2023-05-22T09:53:06.840Z,403.20
2023-05-22T09:55:41.148Z,404.52
2023-05-22T09:58:17.279Z,399.82
2023-05-22T10:00:52.089Z,412.96
2023-05-22T10:03:27.586Z,406.11
2023-05-22T10:06:03.980Z,409.34
2023-05-22T10:08:44.430Z,402.89
2023-05-22T10:11:18.661Z,403.75
2023-05-22T10:13:52.940Z,394.37
2023-05-22T10:16:27.710Z,387.85
2023-05-22T10:19:02.419Z,393.57
2023-05-22T10:21:37.952Z,379.22
2023-05-22T10:24:11.464Z,385.63
2023-05-22T10:26:45.820Z,381.26
2023-05-22T10:29:26.622Z,386.71
2023-05-22T10:32:07.755Z,386.63
2023-05-22T10:34:58.646Z,389.98
2023-05-22T10:37:49.903Z,391.17
2023-05-22T10:40:30.458Z,384.90
2023-05-22T10:43:05.107Z,389.60
2023-05-22T10:45:38.301Z,382.18
2023-05-22T10:48:13.252Z,374.91
2023-05-22T10:50:53.648Z,376.36
2023-05-22T10:53:32.381Z,379.78
2023-05-22T10:56:13.592Z,374.73
2023-05-22T10:58:57.726Z,375.33
2023-05-22T11:01:31.009Z,384.10
2023-05-22T11:04:12.938Z,377.28
2023-05-22T11:06:50.850Z,382.16
2023-05-22T11:09:31.714Z,378.71
2023-05-22T11:12:17.506Z,376.39
2023-05-22T11:14:53.058Z,369.54
2023-05-22T11:17:29.167Z,384.12
2023-05-22T11:20:05.982Z,388.53
2023-05-22T11:22:43.173Z,383.81
2023-05-22T11:25:20.188Z,379.47
2023-05-22T11:27:56.169Z,388.49
2023-05-22T11:30:30.920Z,376.33
2023-05-22T11:33:04.681Z,381.07
2023-05-22T11:35:40.917Z,375.17
2023-05-22T11:38:15.880Z,380.15
2023-05-22T11:40:53.252Z,387.57
2023-05-22T11:43:33.146Z,381.64
2023-05-22T11:46:11.582Z,392.85
2023-05-22T11:48:44.792Z,388.05
2023-05-22T11:51:21.331Z,381.29
2023-05-22T11:53:55.173Z,387.33
2023-05-22T11:56:29.773Z,385.77
2023-05-22T11:59:04.022Z,380.03
2023-05-22T12:01:37.266Z,376.71
2023-05-22T12:04:10.507Z,389.96
2023-05-22T12:06:43.928Z,410.24
2023-05-22T12:09:17.111Z,414.09
2023-05-22T12:11:51.921Z,403.83
2023-05-22T12:14:27.664Z,398.97
2023-05-22T12:17:01.330Z,388.85
2023-05-22T12:19:34.541Z,391.57
2023-05-22T12:22:08.210Z,398.36
2023-05-22T12:24:44.101Z,390.22
2023-05-22T12:27:18.655Z,384.70
2023-05-22T12:29:52.913Z,389.04
2023-05-22T12:32:27.097Z,380.73
2023-05-22T12:35:00.711Z,377.68
2023-05-22T12:37:35.664Z,381.78
2023-05-22T12:40:10.578Z,395.84
2023-05-22T12:42:45.850Z,393.91
2023-05-22T12:45:19.219Z,410.07
2023-05-22T12:47:52.409Z,418.80
2023-05-22T12:50:25.941Z,410.22
2023-05-22T12:52:59.225Z,410.51
2023-05-22T12:55:32.437Z,400.19
2023-05-22T12:58:07.222Z,404.04
2023-05-22T13:00:40.708Z,405.81
2023-05-22T13:03:14.250Z,387.72
2023-05-22T13:05:47.349Z,400.93
2023-05-22T13:08:20.500Z,407.59
2023-05-22T13:10:53.677Z,397.52
2023-05-22T13:13:28.177Z,397.51
2023-05-22T13:16:01.318Z,412.38
2023-05-22T13:18:34.487Z,415.10
2023-05-22T13:21:07.669Z,412.20
2023-05-22T13:23:41.066Z,416.13
2023-05-22T13:26:14.197Z,411.94
2023-05-22T13:28:48.752Z,413.86
2023-05-22T13:31:22.025Z,419.07
2023-05-22T13:33:55.269Z,420.53
2023-05-22T13:36:28.492Z,427.15
2023-05-22T13:39:01.738Z,414.58
2023-05-22T13:41:35.101Z,424.51
2023-05-22T13:44:09.685Z,436.30
2023-05-22T13:46:42.919Z,419.63
2023-05-22T13:49:16.208Z,411.47
2023-05-22T13:51:49.421Z,415.34
2023-05-22T13:54:22.551Z,418.27
2023-05-22T13:56:57.653Z,409.11
2023-05-22T13:59:32.333Z,405.98
2023-05-22T14:02:06.054Z,415.90
2023-05-22T14:04:39.250Z,417.84
2023-05-22T14:07:12.819Z,405.64
2023-05-22T14:09:46.148Z,413.89
2023-05-22T14:12:19.324Z,405.73
2023-05-22T14:14:53.960Z,406.89
2023-05-22T14:17:27.153Z,407.90
2023-05-22T14:20:00.542Z,410.36
2023-05-22T14:22:41.418Z,402.71
2023-05-22T14:25:21.695Z,391.75
2023-05-22T14:27:54.938Z,397.33
2023-05-22T14:30:29.542Z,402.74
2023-05-22T14:33:02.761Z,386.14
2023-05-22T14:35:36.222Z,397.87
2023-05-22T14:38:09.395Z,406.02
2023-05-22T14:40:42.611Z,395.97
2023-05-22T14:43:15.804Z,398.52
2023-05-22T14:45:50.513Z,403.01
2023-05-22T14:48:26.611Z,395.17
2023-05-22T14:51:00.066Z,404.06
2023-05-22T14:53:33.284Z,409.89
2023-05-22T14:56:06.765Z,406.67
2023-05-22T14:58:39.953Z,405.69
2023-05-22T15:01:14.536Z,390.25
2023-05-22T15:03:48.484Z,379.37
2023-05-22T15:06:22.085Z,501.62
2023-05-22T15:08:55.251Z,887.49
2023-05-22T15:11:28.431Z,474.71
2023-05-22T15:14:01.595Z,2047.95
2023-05-22T15:16:36.187Z,537.57
2023-05-22T15:19:10.311Z,456.60
2023-05-22T15:21:43.534Z,485.08
2023-05-22T15:24:16.780Z,597.18
2023-05-22T15:26:49.927Z,416.93
2023-05-22T15:29:23.185Z,406.68
2023-05-22T15:31:57.801Z,399.54
2023-05-22T15:34:31.357Z,406.13
2023-05-22T15:37:04.603Z,404.34
2023-05-22T15:39:37.748Z,392.30
2023-05-22T15:42:11.054Z,407.95
2023-05-22T15:44:44.277Z,387.17
2023-05-22T15:47:18.803Z,378.22
2023-05-22T15:49:51.959Z,384.75
2023-05-22T15:52:25.310Z,397.93
2023-05-22T15:54:58.892Z,389.48
2023-05-22T15:57:32.445Z,372.22
2023-05-22T16:00:06.844Z,372.10
2023-05-22T16:02:41.421Z,363.42
2023-05-22T16:05:14.608Z,365.01
2023-05-22T16:07:47.818Z,382.13
2023-05-22T16:10:21.633Z,397.00
2023-05-22T16:12:54.797Z,363.60
2023-05-22T16:15:27.962Z,356.30
2023-05-22T16:18:02.588Z,396.25
2023-05-22T16:20:36.885Z,343.39
2023-05-22T16:23:10.137Z,337.19
2023-05-22T16:25:43.356Z,316.60
2023-05-22T16:28:17.213Z,312.83
2023-05-22T16:30:50.472Z,307.89
2023-05-22T16:33:25.077Z,306.39
2023-05-22T16:35:58.348Z,291.85
2023-05-22T16:38:31.539Z,294.47
2023-05-22T16:41:04.809Z,281.10
2023-05-22T16:43:38.378Z,346.29
2023-05-22T16:46:11.649Z,282.18
2023-05-22T16:48:46.332Z,288.39
2023-05-22T16:51:19.766Z,279.36
2023-05-22T16:53:52.947Z,275.80
2023-05-22T16:56:26.393Z,279.43
2023-05-22T16:58:59.612Z,275.50
2023-05-22T17:01:32.936Z,260.97
2023-05-22T17:04:07.588Z,275.34
2023-05-22T17:06:41.327Z,283.63
2023-05-22T17:09:16.916Z,287.29
2023-05-22T17:11:50.131Z,293.77
2023-05-22T17:14:23.532Z,302.13
2023-05-22T17:16:57.054Z,307.54
2023-05-22T17:19:32.404Z,317.60
2023-05-22T17:22:06.128Z,330.59
2023-05-22T17:24:39.386Z,325.72
2023-05-22T17:29:45.895Z,327.31
2023-05-22T17:32:19.158Z,330.67
2023-05-22T17:34:53.836Z,323.80
2023-05-22T17:37:27.054Z,325.93
2023-05-22T17:40:00.416Z,325.01
2023-05-22T17:42:33.721Z,322.78
2023-05-22T17:45:08.175Z,315.80
2023-05-22T17:47:41.432Z,317.43
2023-05-22T17:50:16.174Z,318.45
2023-05-22T17:52:49.586Z,317.52
2023-05-22T17:55:22.862Z,312.14
2023-05-22T17:57:56.234Z,310.94
2023-05-22T18:00:29.487Z,300.07
2023-05-22T18:03:05.128Z,298.93
2023-05-22T18:05:40.181Z,290.08
2023-05-22T18:08:13.354Z,281.63
2023-05-22T18:10:46.613Z,275.88
2023-05-22T18:13:20.282Z,279.06
2023-05-22T18:15:54.368Z,279.60
2023-05-22T18:18:27.831Z,273.07
2023-05-22T18:21:03.338Z,270.00
2023-05-22T18:23:36.577Z,269.85
2023-05-22T18:26:10.150Z,274.51
2023-05-22T18:28:43.300Z,264.19
2023-05-22T18:31:16.725Z,257.49
2023-05-22T18:33:49.889Z,256.27
2023-05-22T18:36:24.558Z,247.64
2023-05-22T18:38:57.759Z,252.03
2023-05-22T18:41:31.065Z,250.14
2023-05-22T18:44:04.676Z,246.63
2023-05-22T18:46:37.957Z,239.07
2023-05-22T18:49:11.188Z,234.58
2023-05-22T18:51:45.856Z,231.03
2023-05-22T18:54:19.160Z,233.04
2023-05-22T18:56:52.896Z,229.12
2023-05-22T18:59:28.494Z,224.43
2023-05-22T19:02:01.729Z,223.00
2023-05-22T19:04:34.903Z,227.72
2023-05-22T19:07:09.530Z,218.22
2023-05-22T19:09:44.960Z,219.41
2023-05-22T19:12:18.252Z,223.34
2023-05-22T19:14:52.566Z,219.72
2023-05-22T19:17:26.127Z,225.77
2023-05-22T19:19:59.363Z,221.08
2023-05-22T19:22:34.016Z,221.58
2023-05-22T19:25:07.915Z,222.55
2023-05-22T19:27:41.080Z,224.56
2023-05-22T19:30:16.521Z,220.17
2023-05-22T19:32:50.914Z,220.70
2023-05-22T19:35:24.296Z,221.23
2023-05-22T19:37:58.888Z,221.54
2023-05-22T19:40:32.025Z,215.45
2023-05-22T19:43:05.294Z,223.47
2023-05-22T19:45:41.043Z,222.44
2023-05-22T19:48:14.957Z,215.45
2023-05-22T19:50:48.124Z,219.61
2023-05-22T19:53:22.696Z,220.07
2023-05-22T19:56:03.032Z,219.09
2023-05-22T19:58:36.212Z,217.76
2023-05-22T20:01:09.358Z,221.41
2023-05-22T20:03:42.648Z,220.98
2023-05-22T20:06:16.153Z,228.59
2023-05-22T20:08:50.739Z,220.47
2023-05-22T20:11:23.931Z,221.05
2023-05-22T20:13:57.175Z,222.68
2023-05-22T20:16:30.454Z,223.58
2023-05-22T20:19:04.020Z,222.38
2023-05-22T20:21:37.322Z,216.56
2023-05-22T20:24:18.966Z,226.34
2023-05-22T20:26:52.871Z,226.22
2023-05-22T20:29:26.038Z,228.67
2023-05-22T20:31:59.369Z,242.36
2023-05-22T20:34:32.578Z,241.10
2023-05-22T20:37:08.900Z,232.66
2023-05-22T20:39:44.322Z,235.59
2023-05-22T20:42:18.278Z,238.72
2023-05-22T20:44:53.868Z,246.62
2023-05-22T20:47:27.161Z,250.76
2023-05-22T20:50:00.326Z,252.81
2023-05-22T20:52:33.755Z,262.02
2023-05-22T20:55:09.252Z,273.33
2023-05-22T20:57:42.445Z,273.92
2023-05-22T21:00:15.840Z,274.66
2023-05-22T21:02:49.025Z,275.00
2023-05-22T21:05:22.397Z,281.31
2023-05-22T21:07:55.506Z,280.70
2023-05-22T21:10:30.034Z,276.92
2023-05-22T21:13:03.118Z,279.68
2023-05-22T21:15:36.586Z,286.70
2023-05-22T21:18:09.857Z,284.29
2023-05-22T21:20:43.119Z,287.15
2023-05-22T21:23:16.318Z,286.13
2023-05-22T21:25:50.906Z,288.19
2023-05-22T21:28:24.095Z,296.32
2023-05-22T21:30:57.356Z,293.52
2023-05-22T21:33:30.487Z,295.47
2023-05-22T21:36:03.741Z,296.64
2023-05-22T21:38:36.865Z,301.31
2023-05-22T21:41:11.779Z,303.87
2023-05-22T21:43:45.623Z,310.22
2023-05-22T21:46:18.854Z,310.41
2023-05-22T21:48:53.621Z,324.29
2023-05-22T21:51:26.881Z,331.55
2023-05-22T21:54:00.148Z,333.22
2023-05-22T21:56:34.744Z,336.63
2023-05-22T21:59:08.017Z,333.45
2023-05-22T22:01:41.356Z,332.65
2023-05-22T22:04:14.540Z,346.57
2023-05-22T22:06:47.766Z,350.96
2023-05-22T22:09:20.919Z,351.39
2023-05-22T22:11:55.634Z,369.47
2023-05-22T22:14:28.812Z,366.16
2023-05-22T22:17:02.003Z,370.44
2023-05-22T22:19:36.079Z,362.89
2023-05-22T22:22:09.697Z,364.86
2023-05-22T22:24:42.947Z,372.59
2023-05-22T22:27:17.665Z,368.67
2023-05-22T22:29:50.834Z,369.41
2023-05-22T22:32:24.036Z,372.04
2023-05-22T22:34:57.217Z,368.83
2023-05-22T22:37:31.169Z,376.29
2023-05-22T22:40:05.290Z,377.56
2023-05-22T22:42:39.876Z,375.78
2023-05-22T22:45:14.705Z,389.26
2023-05-22T22:47:48.299Z,394.46
2023-05-22T22:50:21.518Z,387.24
2023-05-22T22:52:54.806Z,394.18
2023-05-22T22:55:28.104Z,391.83
2023-05-22T22:58:03.023Z,381.86
2023-05-22T23:00:38.568Z,394.04
2023-05-22T23:03:11.741Z,402.34
2023-05-22T23:05:45.306Z,408.89
2023-05-22T23:08:18.680Z,405.98
2023-05-22T23:10:51.823Z,400.23
2023-05-22T23:13:26.402Z,410.03
2023-05-22T23:15:59.614Z,415.48
2023-05-22T23:18:32.800Z,417.47
2023-05-22T23:21:06.560Z,414.67
2023-05-22T23:23:39.731Z,403.63
2023-05-22T23:26:12.871Z,403.55
2023-05-22T23:28:47.436Z,392.65
2023-05-22T23:31:26.087Z,379.79
2023-05-22T23:34:00.036Z,372.08
2023-05-22T23:36:33.666Z,366.58
2023-05-22T23:39:06.892Z,368.89
2023-05-22T23:41:40.521Z,362.95
2023-05-22T23:44:15.134Z,364.28
2023-05-22T23:46:48.744Z,364.62
2023-05-22T23:49:22.277Z,351.30
2023-05-22T23:51:55.476Z,348.71
2023-05-22T23:54:28.799Z,324.02
2023-05-22T23:57:01.934Z,326.08
2023-05-22T23:59:36.458Z,287.34
